sensor_id;sensor_type;location;lat;lon;timestamp;P1;durP1;ratioP1;P2;durP2;ratioP2
75760;SDS011;64373;46.136;8.830;2023-06-14T00:00:11;11.95;;;8.48;;
75760;SDS011;64373;46.136;8.830;2023-06-14T00:02:38;11.45;;;8.25;;
75760;SDS011;64373;46.136;8.830;2023-06-14T00:05:04;8.93;;;7.18;;
75760;SDS011;64373;46.136;8.830;2023-06-14T00:07:34;8.93;;;6.40;;
75760;SDS011;64373;46.136;8.830;2023-06-14T00:10:00;11.02;;;7.22;;
75760;SDS011;64373;46.136;8.830;2023-06-14T00:12:27;7.85;;;5.75;;
75760;SDS011;64373;46.136;8.830;2023-06-14T00:14:52;5.15;;;4.05;;
75760;SDS011;64373;46.136;8.830;2023-06-14T00:17:17;4.85;;;3.75;;
75760;SDS011;64373;46.136;8.830;2023-06-14T00:19:43;4.43;;;3.45;;
75760;SDS011;64373;46.136;8.830;2023-06-14T00:22:09;8.35;;;5.43;;
75760;SDS011;64373;46.136;8.830;2023-06-14T00:24:34;7.25;;;6.07;;
75760;SDS011;64373;46.136;8.830;2023-06-14T00:27:00;6.03;;;4.50;;
75760;SDS011;64373;46.136;8.830;2023-06-14T00:29:25;4.30;;;3.53;;
75760;SDS011;64373;46.136;8.830;2023-06-14T00:31:51;7.25;;;5.60;;
75760;SDS011;64373;46.136;8.830;2023-06-14T00:34:16;10.68;;;6.97;;
75760;SDS011;64373;46.136;8.830;2023-06-14T00:36:42;8.05;;;5.93;;
75760;SDS011;64373;46.136;8.830;2023-06-14T00:39:07;9.60;;;6.93;;
75760;SDS011;64373;46.136;8.830;2023-06-14T00:41:34;10.20;;;6.95;;
75760;SDS011;64373;46.136;8.830;2023-06-14T00:44:00;12.00;;;7.55;;
75760;SDS011;64373;46.136;8.830;2023-06-14T00:46:25;8.45;;;6.15;;
75760;SDS011;64373;46.136;8.830;2023-06-14T00:48:51;6.63;;;4.65;;
75760;SDS011;64373;46.136;8.830;2023-06-14T00:51:17;4.40;;;3.88;;
75760;SDS011;64373;46.136;8.830;2023-06-14T00:53:42;4.05;;;3.20;;
75760;SDS011;64373;46.136;8.830;2023-06-14T00:56:12;3.72;;;3.00;;
75760;SDS011;64373;46.136;8.830;2023-06-14T00:58:39;3.92;;;2.70;;
75760;SDS011;64373;46.136;8.830;2023-06-14T01:01:06;3.60;;;2.58;;
75760;SDS011;64373;46.136;8.830;2023-06-14T01:03:31;3.53;;;2.70;;
75760;SDS011;64373;46.136;8.830;2023-06-14T01:06:18;3.25;;;2.70;;
75760;SDS011;64373;46.136;8.830;2023-06-14T01:09:03;4.38;;;3.42;;
75760;SDS011;64373;46.136;8.830;2023-06-14T01:11:41;3.70;;;3.10;;
75760;SDS011;64373;46.136;8.830;2023-06-14T01:14:13;3.15;;;2.55;;
75760;SDS011;64373;46.136;8.830;2023-06-14T01:16:39;3.22;;;2.50;;
75760;SDS011;64373;46.136;8.830;2023-06-14T01:19:05;3.38;;;2.70;;
75760;SDS011;64373;46.136;8.830;2023-06-14T01:21:31;2.92;;;2.55;;
75760;SDS011;64373;46.136;8.830;2023-06-14T01:24:06;2.92;;;2.45;;
75760;SDS011;64373;46.136;8.830;2023-06-14T01:26:34;3.03;;;2.72;;
75760;SDS011;64373;46.136;8.830;2023-06-14T01:29:02;4.53;;;3.58;;
75760;SDS011;64373;46.136;8.830;2023-06-14T01:31:28;6.47;;;4.68;;
75760;SDS011;64373;46.136;8.830;2023-06-14T01:33:54;4.93;;;3.70;;
75760;SDS011;64373;46.136;8.830;2023-06-14T01:36:20;6.40;;;3.60;;
75760;SDS011;64373;46.136;8.830;2023-06-14T01:38:48;4.45;;;3.45;;
75760;SDS011;64373;46.136;8.830;2023-06-14T01:41:15;4.43;;;3.38;;
75760;SDS011;64373;46.136;8.830;2023-06-14T01:43:41;4.03;;;3.15;;
75760;SDS011;64373;46.136;8.830;2023-06-14T01:46:08;5.50;;;3.40;;
75760;SDS011;64373;46.136;8.830;2023-06-14T01:48:34;3.55;;;2.88;;
75760;SDS011;64373;46.136;8.830;2023-06-14T01:50:59;3.15;;;2.75;;
75760;SDS011;64373;46.136;8.830;2023-06-14T01:53:25;3.78;;;3.08;;
75760;SDS011;64373;46.136;8.830;2023-06-14T01:55:51;2.90;;;2.40;;
75760;SDS011;64373;46.136;8.830;2023-06-14T01:58:19;2.97;;;2.67;;
75760;SDS011;64373;46.136;8.830;2023-06-14T02:00:44;2.70;;;2.50;;
75760;SDS011;64373;46.136;8.830;2023-06-14T02:03:10;2.90;;;2.20;;
75760;SDS011;64373;46.136;8.830;2023-06-14T02:05:37;2.42;;;2.20;;
75760;SDS011;64373;46.136;8.830;2023-06-14T02:08:04;3.15;;;2.55;;
75760;SDS011;64373;46.136;8.830;2023-06-14T02:10:30;2.85;;;2.55;;
75760;SDS011;64373;46.136;8.830;2023-06-14T02:12:56;2.53;;;2.30;;
75760;SDS011;64373;46.136;8.830;2023-06-14T02:15:21;2.92;;;2.42;;
75760;SDS011;64373;46.136;8.830;2023-06-14T02:17:48;4.03;;;2.60;;
75760;SDS011;64373;46.136;8.830;2023-06-14T02:20:17;2.72;;;2.22;;
75760;SDS011;64373;46.136;8.830;2023-06-14T02:22:43;2.28;;;2.08;;
75760;SDS011;64373;46.136;8.830;2023-06-14T02:25:08;2.70;;;2.35;;
75760;SDS011;64373;46.136;8.830;2023-06-14T02:27:35;2.83;;;2.08;;
75760;SDS011;64373;46.136;8.830;2023-06-14T02:30:00;2.25;;;1.95;;
75760;SDS011;64373;46.136;8.830;2023-06-14T02:32:26;5.18;;;3.10;;
75760;SDS011;64373;46.136;8.830;2023-06-14T02:34:52;3.30;;;2.80;;
75760;SDS011;64373;46.136;8.830;2023-06-14T02:37:19;2.33;;;2.13;;
75760;SDS011;64373;46.136;8.830;2023-06-14T02:39:44;2.28;;;2.05;;
75760;SDS011;64373;46.136;8.830;2023-06-14T02:42:10;2.38;;;2.03;;
75760;SDS011;64373;46.136;8.830;2023-06-14T02:44:36;2.17;;;1.98;;
75760;SDS011;64373;46.136;8.830;2023-06-14T02:47:02;2.33;;;2.05;;
75760;SDS011;64373;46.136;8.830;2023-06-14T02:49:28;2.28;;;2.03;;
75760;SDS011;64373;46.136;8.830;2023-06-14T02:51:54;3.65;;;2.58;;
75760;SDS011;64373;46.136;8.830;2023-06-14T02:54:20;2.90;;;2.28;;
75760;SDS011;64373;46.136;8.830;2023-06-14T02:56:48;2.30;;;2.10;;
75760;SDS011;64373;46.136;8.830;2023-06-14T02:59:15;2.85;;;2.38;;
75760;SDS011;64373;46.136;8.830;2023-06-14T03:01:42;2.50;;;2.30;;
75760;SDS011;64373;46.136;8.830;2023-06-14T03:04:08;2.40;;;2.20;;
75760;SDS011;64373;46.136;8.830;2023-06-14T03:06:34;2.40;;;1.92;;
75760;SDS011;64373;46.136;8.830;2023-06-14T03:09:00;2.60;;;2.40;;
75760;SDS011;64373;46.136;8.830;2023-06-14T03:11:29;2.28;;;1.80;;
75760;SDS011;64373;46.136;8.830;2023-06-14T03:13:55;2.78;;;2.08;;
75760;SDS011;64373;46.136;8.830;2023-06-14T03:16:21;2.47;;;2.03;;
75760;SDS011;64373;46.136;8.830;2023-06-14T03:18:52;2.25;;;2.00;;
75760;SDS011;64373;46.136;8.830;2023-06-14T03:21:18;2.47;;;1.90;;
75760;SDS011;64373;46.136;8.830;2023-06-14T03:23:45;2.13;;;1.83;;
75760;SDS011;64373;46.136;8.830;2023-06-14T03:26:11;2.85;;;2.20;;
75760;SDS011;64373;46.136;8.830;2023-06-14T03:28:43;3.03;;;2.25;;
75760;SDS011;64373;46.136;8.830;2023-06-14T03:31:12;2.70;;;2.28;;
75760;SDS011;64373;46.136;8.830;2023-06-14T03:33:38;2.40;;;2.03;;
75760;SDS011;64373;46.136;8.830;2023-06-14T03:36:05;2.97;;;2.10;;
75760;SDS011;64373;46.136;8.830;2023-06-14T03:38:32;3.80;;;3.10;;
75760;SDS011;64373;46.136;8.830;2023-06-14T03:40:57;5.72;;;4.30;;
75760;SDS011;64373;46.136;8.830;2023-06-14T03:43:23;4.63;;;3.33;;
75760;SDS011;64373;46.136;8.830;2023-06-14T03:45:48;4.38;;;3.03;;
75760;SDS011;64373;46.136;8.830;2023-06-14T03:48:14;3.28;;;2.53;;
75760;SDS011;64373;46.136;8.830;2023-06-14T03:50:39;3.22;;;2.90;;
75760;SDS011;64373;46.136;8.830;2023-06-14T03:53:05;3.50;;;3.00;;
75760;SDS011;64373;46.136;8.830;2023-06-14T03:55:31;3.17;;;2.58;;
75760;SDS011;64373;46.136;8.830;2023-06-14T03:57:58;2.92;;;2.65;;
75760;SDS011;64373;46.136;8.830;2023-06-14T04:00:24;2.53;;;2.25;;
75760;SDS011;64373;46.136;8.830;2023-06-14T04:02:49;3.42;;;2.70;;
75760;SDS011;64373;46.136;8.830;2023-06-14T04:05:15;3.05;;;2.40;;
75760;SDS011;64373;46.136;8.830;2023-06-14T04:07:45;2.92;;;2.38;;
75760;SDS011;64373;46.136;8.830;2023-06-14T04:10:11;2.75;;;2.38;;
75760;SDS011;64373;46.136;8.830;2023-06-14T04:12:38;2.92;;;2.50;;
75760;SDS011;64373;46.136;8.830;2023-06-14T04:15:03;2.95;;;2.70;;
75760;SDS011;64373;46.136;8.830;2023-06-14T04:17:31;3.75;;;3.05;;
75760;SDS011;64373;46.136;8.830;2023-06-14T04:19:58;3.25;;;2.60;;
75760;SDS011;64373;46.136;8.830;2023-06-14T04:22:25;3.28;;;2.70;;
75760;SDS011;64373;46.136;8.830;2023-06-14T04:24:56;2.88;;;2.38;;
75760;SDS011;64373;46.136;8.830;2023-06-14T04:27:22;3.50;;;2.47;;
75760;SDS011;64373;46.136;8.830;2023-06-14T04:29:51;2.67;;;2.20;;
75760;SDS011;64373;46.136;8.830;2023-06-14T04:32:23;3.17;;;2.10;;
75760;SDS011;64373;46.136;8.830;2023-06-14T04:34:50;2.13;;;1.90;;
75760;SDS011;64373;46.136;8.830;2023-06-14T04:37:19;2.15;;;1.65;;
75760;SDS011;64373;46.136;8.830;2023-06-14T04:39:46;1.88;;;1.60;;
75760;SDS011;64373;46.136;8.830;2023-06-14T04:42:12;1.60;;;1.50;;
75760;SDS011;64373;46.136;8.830;2023-06-14T04:44:42;1.73;;;1.63;;
75760;SDS011;64373;46.136;8.830;2023-06-14T04:47:09;3.00;;;2.13;;
75760;SDS011;64373;46.136;8.830;2023-06-14T04:49:36;2.10;;;1.90;;
75760;SDS011;64373;46.136;8.830;2023-06-14T04:52:02;2.88;;;1.90;;
75760;SDS011;64373;46.136;8.830;2023-06-14T04:54:27;1.42;;;1.33;;
75760;SDS011;64373;46.136;8.830;2023-06-14T04:56:53;1.92;;;1.50;;
75760;SDS011;64373;46.136;8.830;2023-06-14T04:59:20;2.45;;;2.05;;
75760;SDS011;64373;46.136;8.830;2023-06-14T05:01:51;5.78;;;3.28;;
75760;SDS011;64373;46.136;8.830;2023-06-14T05:04:17;2.45;;;2.25;;
75760;SDS011;64373;46.136;8.830;2023-06-14T05:06:43;1.75;;;1.52;;
75760;SDS011;64373;46.136;8.830;2023-06-14T05:09:15;2.35;;;2.03;;
75760;SDS011;64373;46.136;8.830;2023-06-14T05:11:42;2.78;;;2.22;;
75760;SDS011;64373;46.136;8.830;2023-06-14T05:14:10;2.92;;;2.40;;
75760;SDS011;64373;46.136;8.830;2023-06-14T05:16:38;3.60;;;3.05;;
75760;SDS011;64373;46.136;8.830;2023-06-14T05:19:04;3.30;;;2.58;;
75760;SDS011;64373;46.136;8.830;2023-06-14T05:21:30;2.90;;;2.60;;
75760;SDS011;64373;46.136;8.830;2023-06-14T05:23:57;4.05;;;3.25;;
75760;SDS011;64373;46.136;8.830;2023-06-14T05:26:23;4.75;;;3.70;;
75760;SDS011;64373;46.136;8.830;2023-06-14T05:28:50;4.40;;;3.58;;
75760;SDS011;64373;46.136;8.830;2023-06-14T05:31:17;3.67;;;2.90;;
75760;SDS011;64373;46.136;8.830;2023-06-14T05:33:43;3.40;;;2.72;;
75760;SDS011;64373;46.136;8.830;2023-06-14T05:36:08;5.35;;;3.30;;
75760;SDS011;64373;46.136;8.830;2023-06-14T05:38:34;3.80;;;2.97;;
75760;SDS011;64373;46.136;8.830;2023-06-14T05:40:59;3.15;;;2.60;;
75760;SDS011;64373;46.136;8.830;2023-06-14T05:43:25;3.70;;;3.05;;
75760;SDS011;64373;46.136;8.830;2023-06-14T05:45:50;5.43;;;3.53;;
75760;SDS011;64373;46.136;8.830;2023-06-14T05:48:16;3.08;;;2.50;;
75760;SDS011;64373;46.136;8.830;2023-06-14T05:50:41;3.15;;;2.50;;
75760;SDS011;64373;46.136;8.830;2023-06-14T05:53:07;4.28;;;3.03;;
75760;SDS011;64373;46.136;8.830;2023-06-14T05:55:32;2.35;;;2.00;;
75760;SDS011;64373;46.136;8.830;2023-06-14T05:57:58;2.42;;;2.05;;
75760;SDS011;64373;46.136;8.830;2023-06-14T06:00:24;3.50;;;2.42;;
75760;SDS011;64373;46.136;8.830;2023-06-14T06:02:49;4.03;;;2.45;;
75760;SDS011;64373;46.136;8.830;2023-06-14T06:05:15;3.38;;;2.70;;
75760;SDS011;64373;46.136;8.830;2023-06-14T06:07:41;3.20;;;2.53;;
75760;SDS011;64373;46.136;8.830;2023-06-14T06:10:07;4.93;;;2.85;;
75760;SDS011;64373;46.136;8.830;2023-06-14T06:12:33;5.13;;;2.85;;
75760;SDS011;64373;46.136;8.830;2023-06-14T06:14:59;4.00;;;2.83;;
75760;SDS011;64373;46.136;8.830;2023-06-14T06:17:25;3.38;;;2.78;;
75760;SDS011;64373;46.136;8.830;2023-06-14T06:19:51;4.57;;;2.70;;
75760;SDS011;64373;46.136;8.830;2023-06-14T06:22:17;2.90;;;2.45;;
75760;SDS011;64373;46.136;8.830;2023-06-14T06:24:42;2.67;;;2.17;;
75760;SDS011;64373;46.136;8.830;2023-06-14T06:27:08;2.25;;;2.05;;
75760;SDS011;64373;46.136;8.830;2023-06-14T06:29:34;2.60;;;1.85;;
75760;SDS011;64373;46.136;8.830;2023-06-14T06:32:00;2.42;;;1.95;;
75760;SDS011;64373;46.136;8.830;2023-06-14T06:34:26;2.13;;;1.90;;
75760;SDS011;64373;46.136;8.830;2023-06-14T06:36:52;2.10;;;1.77;;
75760;SDS011;64373;46.136;8.830;2023-06-14T06:39:17;2.45;;;1.70;;
75760;SDS011;64373;46.136;8.830;2023-06-14T06:41:43;3.08;;;2.33;;
75760;SDS011;64373;46.136;8.830;2023-06-14T06:44:08;2.80;;;2.40;;
75760;SDS011;64373;46.136;8.830;2023-06-14T06:46:36;2.83;;;2.38;;
75760;SDS011;64373;46.136;8.830;2023-06-14T06:49:05;2.85;;;1.98;;
75760;SDS011;64373;46.136;8.830;2023-06-14T06:51:31;2.45;;;1.90;;
75760;SDS011;64373;46.136;8.830;2023-06-14T06:53:57;3.33;;;2.13;;
75760;SDS011;64373;46.136;8.830;2023-06-14T06:56:22;2.80;;;2.30;;
75760;SDS011;64373;46.136;8.830;2023-06-14T06:58:52;3.05;;;2.00;;
75760;SDS011;64373;46.136;8.830;2023-06-14T07:01:17;2.15;;;1.90;;
75760;SDS011;64373;46.136;8.830;2023-06-14T07:03:46;2.67;;;2.30;;
75760;SDS011;64373;46.136;8.830;2023-06-14T07:06:12;2.75;;;2.03;;
75760;SDS011;64373;46.136;8.830;2023-06-14T07:08:37;2.20;;;2.00;;
75760;SDS011;64373;46.136;8.830;2023-06-14T07:11:06;2.75;;;1.70;;
75760;SDS011;64373;46.136;8.830;2023-06-14T07:13:32;2.55;;;2.00;;
75760;SDS011;64373;46.136;8.830;2023-06-14T07:15:58;3.13;;;2.55;;
75760;SDS011;64373;46.136;8.830;2023-06-14T07:18:25;3.28;;;2.53;;
75760;SDS011;64373;46.136;8.830;2023-06-14T07:20:50;3.33;;;2.70;;
75760;SDS011;64373;46.136;8.830;2023-06-14T07:23:17;4.68;;;2.67;;
75760;SDS011;64373;46.136;8.830;2023-06-14T07:25:42;3.20;;;2.45;;
75760;SDS011;64373;46.136;8.830;2023-06-14T07:28:08;5.88;;;2.95;;
75760;SDS011;64373;46.136;8.830;2023-06-14T07:30:33;2.67;;;2.47;;
75760;SDS011;64373;46.136;8.830;2023-06-14T07:33:00;3.63;;;2.70;;
75760;SDS011;64373;46.136;8.830;2023-06-14T07:35:26;3.22;;;2.55;;
75760;SDS011;64373;46.136;8.830;2023-06-14T07:37:51;3.30;;;3.00;;
75760;SDS011;64373;46.136;8.830;2023-06-14T07:40:17;3.85;;;2.45;;
75760;SDS011;64373;46.136;8.830;2023-06-14T07:42:43;2.55;;;2.25;;
75760;SDS011;64373;46.136;8.830;2023-06-14T07:45:09;3.38;;;2.65;;
75760;SDS011;64373;46.136;8.830;2023-06-14T07:47:35;2.85;;;2.53;;
75760;SDS011;64373;46.136;8.830;2023-06-14T07:50:00;2.95;;;2.65;;
75760;SDS011;64373;46.136;8.830;2023-06-14T07:52:26;3.13;;;2.83;;
75760;SDS011;64373;46.136;8.830;2023-06-14T07:54:51;3.50;;;2.60;;
75760;SDS011;64373;46.136;8.830;2023-06-14T07:57:17;3.00;;;2.70;;
75760;SDS011;64373;46.136;8.830;2023-06-14T07:59:45;4.72;;;2.78;;
75760;SDS011;64373;46.136;8.830;2023-06-14T08:02:11;3.45;;;2.83;;
75760;SDS011;64373;46.136;8.830;2023-06-14T08:04:36;3.30;;;2.92;;
75760;SDS011;64373;46.136;8.830;2023-06-14T08:07:02;5.07;;;3.05;;
75760;SDS011;64373;46.136;8.830;2023-06-14T08:09:27;3.15;;;2.70;;
75760;SDS011;64373;46.136;8.830;2023-06-14T08:11:54;2.95;;;2.65;;
75760;SDS011;64373;46.136;8.830;2023-06-14T08:14:20;4.50;;;3.03;;
75760;SDS011;64373;46.136;8.830;2023-06-14T08:16:45;5.18;;;2.85;;
75760;SDS011;64373;46.136;8.830;2023-06-14T08:19:11;4.25;;;2.83;;
75760;SDS011;64373;46.136;8.830;2023-06-14T08:21:36;4.13;;;2.92;;
75760;SDS011;64373;46.136;8.830;2023-06-14T08:24:02;4.47;;;3.22;;
75760;SDS011;64373;46.136;8.830;2023-06-14T08:26:28;4.15;;;3.28;;
75760;SDS011;64373;46.136;8.830;2023-06-14T08:28:55;3.53;;;3.20;;
75760;SDS011;64373;46.136;8.830;2023-06-14T08:31:21;3.80;;;3.42;;
75760;SDS011;64373;46.136;8.830;2023-06-14T08:33:47;3.80;;;3.25;;
75760;SDS011;64373;46.136;8.830;2023-06-14T08:36:12;4.97;;;3.65;;
75760;SDS011;64373;46.136;8.830;2023-06-14T08:38:38;3.75;;;3.20;;
75760;SDS011;64373;46.136;8.830;2023-06-14T08:41:05;3.88;;;3.17;;
75760;SDS011;64373;46.136;8.830;2023-06-14T08:43:32;2.78;;;2.50;;
75760;SDS011;64373;46.136;8.830;2023-06-14T08:45:59;2.65;;;2.45;;
75760;SDS011;64373;46.136;8.830;2023-06-14T08:48:27;3.92;;;2.80;;
75760;SDS011;64373;46.136;8.830;2023-06-14T08:50:54;4.38;;;3.10;;
75760;SDS011;64373;46.136;8.830;2023-06-14T08:53:27;4.25;;;3.20;;
75760;SDS011;64373;46.136;8.830;2023-06-14T08:55:54;4.00;;;3.33;;
75760;SDS011;64373;46.136;8.830;2023-06-14T08:58:20;3.58;;;2.95;;
75760;SDS011;64373;46.136;8.830;2023-06-14T09:00:49;3.15;;;2.83;;
75760;SDS011;64373;46.136;8.830;2023-06-14T09:03:17;3.00;;;2.70;;
75760;SDS011;64373;46.136;8.830;2023-06-14T09:05:45;5.03;;;3.10;;
75760;SDS011;64373;46.136;8.830;2023-06-14T09:08:12;3.33;;;2.97;;
75760;SDS011;64373;46.136;8.830;2023-06-14T09:10:37;3.60;;;3.30;;
75760;SDS011;64373;46.136;8.830;2023-06-14T09:13:05;2.72;;;2.50;;
75760;SDS011;64373;46.136;8.830;2023-06-14T09:15:31;2.67;;;2.47;;
75760;SDS011;64373;46.136;8.830;2023-06-14T09:17:57;2.92;;;2.35;;
75760;SDS011;64373;46.136;8.830;2023-06-14T09:20:23;3.33;;;2.53;;
75760;SDS011;64373;46.136;8.830;2023-06-14T09:22:49;5.63;;;3.40;;
75760;SDS011;64373;46.136;8.830;2023-06-14T09:25:15;2.90;;;2.70;;
75760;SDS011;64373;46.136;8.830;2023-06-14T09:27:41;4.18;;;2.90;;
75760;SDS011;64373;46.136;8.830;2023-06-14T09:30:08;2.88;;;2.40;;
75760;SDS011;64373;46.136;8.830;2023-06-14T09:32:38;2.92;;;2.45;;
75760;SDS011;64373;46.136;8.830;2023-06-14T09:35:07;2.60;;;2.40;;
75760;SDS011;64373;46.136;8.830;2023-06-14T09:37:33;2.78;;;2.58;;
75760;SDS011;64373;46.136;8.830;2023-06-14T09:39:59;2.60;;;2.40;;
75760;SDS011;64373;46.136;8.830;2023-06-14T09:42:25;3.22;;;2.60;;
75760;SDS011;64373;46.136;8.830;2023-06-14T09:44:52;2.67;;;2.47;;
75760;SDS011;64373;46.136;8.830;2023-06-14T09:47:19;2.80;;;2.60;;
75760;SDS011;64373;46.136;8.830;2023-06-14T09:49:45;4.13;;;2.85;;
75760;SDS011;64373;46.136;8.830;2023-06-14T09:52:13;3.40;;;2.80;;
75760;SDS011;64373;46.136;8.830;2023-06-14T09:54:41;2.38;;;2.17;;
75760;SDS011;64373;46.136;8.830;2023-06-14T09:57:15;2.40;;;2.20;;
75760;SDS011;64373;46.136;8.830;2023-06-14T09:59:43;2.65;;;2.45;;
75760;SDS011;64373;46.136;8.830;2023-06-14T10:02:26;2.60;;;2.40;;
75760;SDS011;64373;46.136;8.830;2023-06-14T10:04:56;2.75;;;2.55;;
75760;SDS011;64373;46.136;8.830;2023-06-14T10:10:20;2.80;;;2.40;;
75760;SDS011;64373;46.136;8.830;2023-06-14T10:12:46;6.30;;;2.97;;
75760;SDS011;64373;46.136;8.830;2023-06-14T10:15:15;3.10;;;2.80;;
75760;SDS011;64373;46.136;8.830;2023-06-14T10:20:30;2.95;;;2.50;;
75760;SDS011;64373;46.136;8.830;2023-06-14T10:23:10;2.78;;;2.53;;
75760;SDS011;64373;46.136;8.830;2023-06-14T10:25:38;2.75;;;2.55;;
75760;SDS011;64373;46.136;8.830;2023-06-14T10:28:22;2.70;;;2.50;;
75760;SDS011;64373;46.136;8.830;2023-06-14T10:33:56;2.20;;;2.00;;
75760;SDS011;64373;46.136;8.830;2023-06-14T10:36:30;2.42;;;2.22;;
75760;SDS011;64373;46.136;8.830;2023-06-14T10:38:59;2.33;;;2.13;;
75760;SDS011;64373;46.136;8.830;2023-06-14T10:41:41;2.38;;;2.17;;
75760;SDS011;64373;46.136;8.830;2023-06-14T10:46:38;2.33;;;2.13;;
75760;SDS011;64373;46.136;8.830;2023-06-14T10:52:14;2.30;;;2.10;;
75760;SDS011;64373;46.136;8.830;2023-06-14T10:57:36;3.00;;;2.25;;
75760;SDS011;64373;46.136;8.830;2023-06-14T11:00:04;2.30;;;2.10;;
75760;SDS011;64373;46.136;8.830;2023-06-14T11:05:28;2.88;;;2.20;;
75760;SDS011;64373;46.136;8.830;2023-06-14T11:10:36;2.95;;;2.00;;
75760;SDS011;64373;46.136;8.830;2023-06-14T11:15:32;2.63;;;2.03;;
75760;SDS011;64373;46.136;8.830;2023-06-14T11:18:02;2.20;;;2.00;;
75760;SDS011;64373;46.136;8.830;2023-06-14T11:20:33;2.33;;;2.08;;
75760;SDS011;64373;46.136;8.830;2023-06-14T11:22:59;2.60;;;2.10;;
75760;SDS011;64373;46.136;8.830;2023-06-14T11:25:26;2.17;;;1.98;;
75760;SDS011;64373;46.136;8.830;2023-06-14T11:27:53;2.13;;;1.92;;
75760;SDS011;64373;46.136;8.830;2023-06-14T11:30:19;2.13;;;1.92;;
75760;SDS011;64373;46.136;8.830;2023-06-14T11:32:47;3.53;;;2.08;;
75760;SDS011;64373;46.136;8.830;2023-06-14T11:35:14;2.20;;;2.00;;
75760;SDS011;64373;46.136;8.830;2023-06-14T11:37:40;1.95;;;1.75;;
75760;SDS011;64373;46.136;8.830;2023-06-14T11:40:07;2.30;;;2.10;;
75760;SDS011;64373;46.136;8.830;2023-06-14T11:42:38;2.63;;;2.00;;
75760;SDS011;64373;46.136;8.830;2023-06-14T11:45:07;1.95;;;1.85;;
75760;SDS011;64373;46.136;8.830;2023-06-14T11:47:34;2.85;;;2.20;;
75760;SDS011;64373;46.136;8.830;2023-06-14T11:50:01;2.35;;;1.88;;
75760;SDS011;64373;46.136;8.830;2023-06-14T11:52:27;2.60;;;1.90;;
75760;SDS011;64373;46.136;8.830;2023-06-14T11:54:53;2.22;;;2.03;;
75760;SDS011;64373;46.136;8.830;2023-06-14T11:57:19;1.95;;;1.75;;
75760;SDS011;64373;46.136;8.830;2023-06-14T11:59:45;2.10;;;1.90;;
75760;SDS011;64373;46.136;8.830;2023-06-14T12:02:15;2.05;;;1.90;;
75760;SDS011;64373;46.136;8.830;2023-06-14T12:07:10;2.00;;;1.80;;
75760;SDS011;64373;46.136;8.830;2023-06-14T12:09:41;3.75;;;2.20;;
75760;SDS011;64373;46.136;8.830;2023-06-14T12:12:11;2.25;;;2.05;;
75760;SDS011;64373;46.136;8.830;2023-06-14T12:14:37;2.58;;;1.88;;
75760;SDS011;64373;46.136;8.830;2023-06-14T12:17:06;2.38;;;2.03;;
75760;SDS011;64373;46.136;8.830;2023-06-14T12:19:32;2.20;;;2.00;;
75760;SDS011;64373;46.136;8.830;2023-06-14T12:22:01;2.17;;;1.95;;
75760;SDS011;64373;46.136;8.830;2023-06-14T12:24:30;2.42;;;2.22;;
75760;SDS011;64373;46.136;8.830;2023-06-14T12:26:59;2.15;;;1.95;;
75760;SDS011;64373;46.136;8.830;2023-06-14T12:29:30;2.97;;;2.10;;
75760;SDS011;64373;46.136;8.830;2023-06-14T12:31:56;2.95;;;2.00;;
75760;SDS011;64373;46.136;8.830;2023-06-14T12:34:25;2.35;;;2.15;;
75760;SDS011;64373;46.136;8.830;2023-06-14T12:36:55;2.10;;;1.95;;
75760;SDS011;64373;46.136;8.830;2023-06-14T12:39:21;2.38;;;2.17;;
75760;SDS011;64373;46.136;8.830;2023-06-14T12:41:47;2.17;;;1.98;;
75760;SDS011;64373;46.136;8.830;2023-06-14T12:44:13;2.40;;;2.20;;
75760;SDS011;64373;46.136;8.830;2023-06-14T12:46:40;2.85;;;2.00;;
75760;SDS011;64373;46.136;8.830;2023-06-14T12:49:10;2.10;;;2.00;;
75760;SDS011;64373;46.136;8.830;2023-06-14T12:51:37;2.40;;;2.20;;
75760;SDS011;64373;46.136;8.830;2023-06-14T12:54:03;2.42;;;2.10;;
75760;SDS011;64373;46.136;8.830;2023-06-14T12:56:29;2.22;;;2.03;;
75760;SDS011;64373;46.136;8.830;2023-06-14T12:58:54;2.80;;;2.50;;
75760;SDS011;64373;46.136;8.830;2023-06-14T13:01:20;2.70;;;2.40;;
75760;SDS011;64373;46.136;8.830;2023-06-14T13:03:46;2.75;;;2.38;;
75760;SDS011;64373;46.136;8.830;2023-06-14T13:06:12;3.10;;;2.00;;
75760;SDS011;64373;46.136;8.830;2023-06-14T13:08:38;4.78;;;2.80;;
75760;SDS011;64373;46.136;8.830;2023-06-14T13:11:04;3.47;;;2.58;;
75760;SDS011;64373;46.136;8.830;2023-06-14T13:13:29;2.67;;;2.03;;
75760;SDS011;64373;46.136;8.830;2023-06-14T13:15:55;3.28;;;2.47;;
75760;SDS011;64373;46.136;8.830;2023-06-14T13:18:20;2.60;;;2.40;;
75760;SDS011;64373;46.136;8.830;2023-06-14T13:20:46;3.17;;;2.33;;
75760;SDS011;64373;46.136;8.830;2023-06-14T13:23:12;2.92;;;2.35;;
75760;SDS011;64373;46.136;8.830;2023-06-14T13:25:39;2.60;;;2.40;;
75760;SDS011;64373;46.136;8.830;2023-06-14T13:28:04;2.65;;;2.45;;
75760;SDS011;64373;46.136;8.830;2023-06-14T13:30:31;2.67;;;2.30;;
75760;SDS011;64373;46.136;8.830;2023-06-14T13:32:57;2.42;;;2.22;;
75760;SDS011;64373;46.136;8.830;2023-06-14T13:35:24;2.47;;;2.28;;
75760;SDS011;64373;46.136;8.830;2023-06-14T13:37:50;2.80;;;2.38;;
75760;SDS011;64373;46.136;8.830;2023-06-14T13:40:16;2.70;;;2.50;;
75760;SDS011;64373;46.136;8.830;2023-06-14T13:42:41;2.88;;;2.20;;
75760;SDS011;64373;46.136;8.830;2023-06-14T13:45:07;2.40;;;2.20;;
75760;SDS011;64373;46.136;8.830;2023-06-14T13:47:35;2.30;;;2.10;;
75760;SDS011;64373;46.136;8.830;2023-06-14T13:50:00;2.60;;;2.40;;
75760;SDS011;64373;46.136;8.830;2023-06-14T13:52:27;2.10;;;1.90;;
75760;SDS011;64373;46.136;8.830;2023-06-14T13:54:52;2.33;;;2.13;;
75760;SDS011;64373;46.136;8.830;2023-06-14T13:57:18;1.85;;;1.73;;
75760;SDS011;64373;46.136;8.830;2023-06-14T13:59:44;1.80;;;1.70;;
75760;SDS011;64373;46.136;8.830;2023-06-14T14:02:12;1.90;;;1.80;;
75760;SDS011;64373;46.136;8.830;2023-06-14T14:04:38;2.13;;;1.92;;
75760;SDS011;64373;46.136;8.830;2023-06-14T14:07:04;2.45;;;2.17;;
75760;SDS011;64373;46.136;8.830;2023-06-14T14:09:31;3.33;;;2.58;;
75760;SDS011;64373;46.136;8.830;2023-06-14T14:12:00;2.65;;;2.45;;
75760;SDS011;64373;46.136;8.830;2023-06-14T14:14:32;2.58;;;2.08;;
75760;SDS011;64373;46.136;8.830;2023-06-14T14:16:58;2.85;;;2.63;;
75760;SDS011;64373;46.136;8.830;2023-06-14T14:19:23;2.53;;;2.33;;
75760;SDS011;64373;46.136;8.830;2023-06-14T14:21:49;2.67;;;2.38;;
75760;SDS011;64373;46.136;8.830;2023-06-14T14:24:15;2.33;;;2.13;;
75760;SDS011;64373;46.136;8.830;2023-06-14T14:26:42;2.70;;;2.40;;
75760;SDS011;64373;46.136;8.830;2023-06-14T14:29:09;2.70;;;2.25;;
75760;SDS011;64373;46.136;8.830;2023-06-14T14:31:36;2.50;;;2.30;;
75760;SDS011;64373;46.136;8.830;2023-06-14T14:34:02;4.60;;;2.42;;
75760;SDS011;64373;46.136;8.830;2023-06-14T14:36:27;2.40;;;2.20;;
75760;SDS011;64373;46.136;8.830;2023-06-14T14:38:53;2.35;;;2.10;;
75760;SDS011;64373;46.136;8.830;2023-06-14T14:41:19;2.30;;;2.10;;
75760;SDS011;64373;46.136;8.830;2023-06-14T14:43:45;2.50;;;2.30;;
75760;SDS011;64373;46.136;8.830;2023-06-14T14:46:10;2.20;;;2.03;;
75760;SDS011;64373;46.136;8.830;2023-06-14T14:48:36;2.70;;;2.50;;
75760;SDS011;64373;46.136;8.830;2023-06-14T14:51:01;2.85;;;2.20;;
75760;SDS011;64373;46.136;8.830;2023-06-14T14:53:27;2.85;;;2.65;;
75760;SDS011;64373;46.136;8.830;2023-06-14T14:55:52;2.50;;;2.30;;
75760;SDS011;64373;46.136;8.830;2023-06-14T14:58:18;2.65;;;2.45;;
75760;SDS011;64373;46.136;8.830;2023-06-14T15:00:44;3.20;;;2.53;;
75760;SDS011;64373;46.136;8.830;2023-06-14T15:03:10;2.97;;;2.55;;
75760;SDS011;64373;46.136;8.830;2023-06-14T15:05:36;2.70;;;2.50;;
75760;SDS011;64373;46.136;8.830;2023-06-14T15:08:02;3.03;;;2.63;;
75760;SDS011;64373;46.136;8.830;2023-06-14T15:10:28;2.95;;;2.63;;
75760;SDS011;64373;46.136;8.830;2023-06-14T15:12:54;2.83;;;2.63;;